Time;durP1;ratioP1;P1;durP2;ratioP2;P2;SDS_P1;SDS_P2;PMS_P1;PMS_P2;Temp;Humidity;BMP_temperature;BMP_pressure;BME280_temperature;BME280_humidity;BME280_pressure;Samples;Min_cycle;Max_cycle;Signal;HPM_P1;HPM_P2
2021/03/11 00:01:40;;;;;;;;;;;;;;;;;;5074180;28;931;-77
2021/03/11 00:04:05;;;;;;;;;;;;;;;;;;5073906;28;1370;-77
2021/03/11 00:06:31;;;;;;;;;;;;;;;;;;5055930;28;1448;-76
2021/03/11 00:08:57;;;;;;;;;;;;;;;;;;5055968;28;1132;-77
2021/03/11 00:11:22;;;;;;;;;;;;;;;;;;5056586;28;1822;-76
2021/03/11 00:13:47;;;;;;;;;;;;;;;;;;5073794;28;1886;-77
2021/03/11 00:16:12;;;;;;;;;;;;;;;;;;5074193;28;1353;-77
2021/03/11 00:18:44;;;;;;;;;;;;;;;;;;5073618;28;961;-77
2021/03/11 00:21:09;;;;;;;;;;;;;;;;;;5074116;28;921;-77
2021/03/11 00:23:34;;;;;;;;;;;;;;;;;;5073724;28;848;-78
2021/03/11 00:26:00;;;;;;;;;;;;;;;;;;5073784;28;1281;-77
2021/03/11 00:28:25;;;;;;;;;;;;;;;;;;5055492;28;1134;-78
2021/03/11 00:30:51;;;;;;;;;;;;;;;;;;5055888;28;1793;-77
2021/03/11 00:33:16;;;;;;;;;;;;;;;;;;5073447;28;1894;-77
2021/03/11 00:35:42;;;;;;;;;;;;;;;;;;5073821;28;1337;-77
2021/03/11 00:38:07;;;;;;;;;;;;;;;;;;5056055;28;1198;-78
2021/03/11 00:40:33;;;;;;;;;;;;;;;;;;5056240;28;749;-77
2021/03/11 00:42:59;;;;;;;;;;;;;;;;;;5073997;28;794;-77
2021/03/11 00:45:24;;;;;;;;;;;;;;;;;;5074474;28;1274;-77
2021/03/11 00:47:49;;;;;;;;;;;;;;;;;;5056460;28;1377;-77
2021/03/11 00:50:16;;;;;;;;;;;;;;;;;;5074315;28;861;-77
2021/03/11 00:52:41;;;;;;;;;;;;;;;;;;5055812;28;1342;-77
2021/03/11 00:55:08;;;;;;;;;;;;;;;;;;5073964;28;1959;-77
2021/03/11 00:57:33;;;;;;;;;;;;;;;;;;5074083;28;1302;-77
2021/03/11 00:59:58;;;;;;;;;;;;;;;;;;5074084;28;1012;-78
2021/03/11 01:02:24;;;;;;;;;;;;;;;;;;5073747;28;884;-77
2021/03/11 01:04:49;;;;;;;;;;;;;;;;;;5074024;28;991;-77
2021/03/11 01:07:16;;;;;;;;;;;;;;;;;;5073809;28;1397;-77
2021/03/11 01:09:41;;;;;;;;;;;;;;;;;;5056060;28;811;-77
2021/03/11 01:12:07;;;;;;;;;;;;;;;;;;5073776;28;889;-77
2021/03/11 01:14:32;;;;;;;;;;;;;;;;;;5055951;28;1898;-77
2021/03/11 01:16:57;;;;;;;;;;;;;;;;;;5056014;28;1353;-77
2021/03/11 01:19:22;;;;;;;;;;;;;;;;;;5060090;28;1201;-77
2021/03/11 01:21:48;;;;;;;;;;;;;;;;;;5077534;28;948;-77
2021/03/11 01:24:13;;;;;;;;;;;;;;;;;;5059305;28;1418;-77
2021/03/11 01:26:38;;;;;;;;;;;;;;;;;;5077505;28;1413;-77
2021/03/11 01:29:04;;;;;;;;;;;;;;;;;;5077431;28;940;-77
2021/03/11 01:31:29;;;;;;;;;;;;;;;;;;5059532;28;1431;-77
2021/03/11 01:33:54;;;;;;;;;;;;;;;;;;5076852;28;1902;-78
2021/03/11 01:36:20;;;;;;;;;;;;;;;;;;5059264;28;1341;-77
2021/03/11 01:38:45;;;;;;;;;;;;;;;;;;5059662;28;1374;-78
2021/03/11 01:41:10;;;;;;;;;;;;;;;;;;5077211;28;926;-77
2021/03/11 01:43:35;;;;;;;;;;;;;;;;;;5076835;28;925;-77
2021/03/11 01:46:01;;;;;;;;;;;;;;;;;;5059137;28;1353;-77
2021/03/11 01:48:26;;;;;;;;;;;;;;;;;;5059437;28;1113;-76
2021/03/11 01:50:51;;;;;;;;;;;;;;;;;;5077379;28;936;-77
2021/03/11 01:53:16;;;;;;;;;;;;;;;;;;5076819;28;1967;-78
2021/03/11 01:55:42;;;;;;;;;;;;;;;;;;5076838;28;1321;-78
2021/03/11 01:58:07;;;;;;;;;;;;;;;;;;5058831;28;892;-77
2021/03/11 02:00:33;;;;;;;;;;;;;;;;;;5058992;28;838;-76
2021/03/11 02:02:58;;;;;;;;;;;;;;;;;;5076829;28;862;-76
2021/03/11 02:05:23;;;;;;;;;;;;;;;;;;5076998;28;1373;-77
2021/03/11 02:07:49;;;;;;;;;;;;;;;;;;5076620;28;813;-76
2021/03/11 02:10:17;;;;;;;;;;;;;;;;;;5059090;28;1174;-76
2021/03/11 02:12:51;;;;;;;;;;;;;;;;;;5058697;28;881;-77
2021/03/11 02:15:26;;;;;;;;;;;;;;;;;;5076584;28;1965;-76
2021/03/11 02:17:56;;;;;;;;;;;;;;;;;;5076323;28;821;-76
2021/03/11 02:20:40;;;;;;;;;;;;;;;;;;5076563;28;1016;-76
2021/03/11 02:23:11;;;;;;;;;;;;;;;;;;5076181;28;893;-77
2021/03/11 02:25:51;;;;;;;;;;;;;;;;;;5058718;28;1440;-77
2021/03/11 02:28:31;;;;;;;;;;;;;;;;;;5076241;28;1047;-77
2021/03/11 02:30:57;;;;;;;;;;;;;;;;;;5076332;28;875;-77
2021/03/11 02:33:24;;;;;;;;;;;;;;;;;;5058044;28;1951;-77
2021/03/11 02:35:51;;;;;;;;;;;;;;;;;;5076223;28;1325;-77
2021/03/11 02:38:17;;;;;;;;;;;;;;;;;;5076302;28;872;-77
2021/03/11 02:40:42;;;;;;;;;;;;;;;;;;5058916;28;963;-77
2021/03/11 02:43:12;;;;;;;;;;;;;;;;;;5058794;28;849;-76
2021/03/11 02:45:38;;;;;;;;;;;;;;;;;;5058260;28;1302;-77
2021/03/11 02:48:04;;;;;;;;;;;;;;;;;;5057974;28;1299;-77
2021/03/11 02:50:31;;;;;;;;;;;;;;;;;;5057970;28;1219;-76
2021/03/11 02:52:57;;;;;;;;;;;;;;;;;;5075769;28;810;-77
2021/03/11 02:55:23;;;;;;;;;;;;;;;;;;5075557;28;1961;-77
2021/03/11 02:57:50;;;;;;;;;;;;;;;;;;5076053;28;913;-76
2021/03/11 03:00:15;;;;;;;;;;;;;;;;;;5075958;28;904;-77
2021/03/11 03:02:42;;;;;;;;;;;;;;;;;;5075641;28;834;-77
2021/03/11 03:05:08;;;;;;;;;;;;;;;;;;5075487;28;943;-77
2021/03/11 03:07:34;;;;;;;;;;;;;;;;;;5057847;28;1392;-77
2021/03/11 03:10:00;;;;;;;;;;;;;;;;;;5075457;28;900;-77
2021/03/11 03:12:25;;;;;;;;;;;;;;;;;;5075458;28;910;-77
2021/03/11 03:14:51;;;;;;;;;;;;;;;;;;5075258;28;1910;-77
2021/03/11 03:17:18;;;;;;;;;;;;;;;;;;5057396;28;1298;-77
2021/03/11 03:19:44;;;;;;;;;;;;;;;;;;5057656;28;1187;-77
2021/03/11 03:22:10;;;;;;;;;;;;;;;;;;5075318;28;944;-77
2021/03/11 03:24:36;;;;;;;;;;;;;;;;;;5057231;28;893;-77
2021/03/11 03:27:02;;;;;;;;;;;;;;;;;;5075602;28;1495;-77
2021/03/11 03:29:27;;;;;;;;;;;;;;;;;;5057590;28;880;-77
2021/03/11 03:31:53;;;;;;;;;;;;;;;;;;5075406;28;956;-77
2021/03/11 03:34:18;;;;;;;;;;;;;;;;;;5074918;28;1918;-76
2021/03/11 03:36:43;;;;;;;;;;;;;;;;;;5074974;28;1290;-76
2021/03/11 03:39:09;;;;;;;;;;;;;;;;;;5074938;28;887;-77
2021/03/11 03:41:36;;;;;;;;;;;;;;;;;;5074753;28;884;-77
2021/03/11 03:44:02;;;;;;;;;;;;;;;;;;5074826;28;889;-77
2021/03/11 03:46:27;;;;;;;;;;;;;;;;;;5056650;28;1350;-78
2021/03/11 03:48:53;;;;;;;;;;;;;;;;;;5057163;28;833;-77
2021/03/11 03:51:29;;;;;;;;;;;;;;;;;;5075072;28;976;-75
2021/03/11 03:53:59;;;;;;;;;;;;;;;;;;5074707;28;1901;-75
2021/03/11 03:56:28;;;;;;;;;;;;;;;;;;5074479;28;1400;-75
2021/03/11 03:58:56;;;;;;;;;;;;;;;;;;5056809;28;900;-75
2021/03/11 04:01:22;;;;;;;;;;;;;;;;;;5074687;28;920;-75
2021/03/11 04:03:48;;;;;;;;;;;;;;;;;;5056505;28;826;-75
2021/03/11 04:06:14;;;;;;;;;;;;;;;;;;5056579;28;1379;-75
2021/03/11 04:08:41;;;;;;;;;;;;;;;;;;5056807;28;909;-75
2021/03/11 04:11:06;;;;;;;;;;;;;;;;;;5056841;28;1215;-75
2021/03/11 04:13:32;;;;;;;;;;;;;;;;;;5056706;28;1968;-76
2021/03/11 04:15:58;;;;;;;;;;;;;;;;;;5056891;28;1496;-75
2021/03/11 04:18:23;;;;;;;;;;;;;;;;;;5056279;28;1211;-75
2021/03/11 04:20:49;;;;;;;;;;;;;;;;;;5074623;28;842;-75
2021/03/11 04:23:15;;;;;;;;;;;;;;;;;;5056254;28;1400;-76
2021/03/11 04:25:41;;;;;;;;;;;;;;;;;;5074282;28;1310;-76
2021/03/11 04:28:06;;;;;;;;;;;;;;;;;;5074363;28;940;-75
2021/03/11 04:30:32;;;;;;;;;;;;;;;;;;5074211;28;956;-76
2021/03/11 04:32:57;;;;;;;;;;;;;;;;;;5056276;28;1311;-75
2021/03/11 04:35:22;;;;;;;;;;;;;;;;;;5074261;28;1956;-75
2021/03/11 04:37:48;;;;;;;;;;;;;;;;;;5074140;28;939;-76
2021/03/11 04:40:13;;;;;;;;;;;;;;;;;;5056332;28;1231;-75
2021/03/11 04:42:39;;;;;;;;;;;;;;;;;;5074072;28;856;-76
2021/03/11 04:45:06;;;;;;;;;;;;;;;;;;5074037;28;1004;-75
2021/03/11 04:47:32;;;;;;;;;;;;;;;;;;5074114;28;1424;-75
2021/03/11 04:50:00;;;;;;;;;;;;;;;;;;5074279;28;836;-75
2021/03/11 04:52:26;;;;;;;;;;;;;;;;;;5057203;28;841;-76
2021/03/11 04:54:52;;;;;;;;;;;;;;;;;;5078203;28;1886;-75
2021/03/11 04:57:17;;;;;;;;;;;;;;;;;;5077975;28;1290;-76
2021/03/11 04:59:42;;;;;;;;;;;;;;;;;;5077814;28;826;-75
2021/03/11 05:02:09;;;;;;;;;;;;;;;;;;5077912;28;865;-75
2021/03/11 05:04:35;;;;;;;;;;;;;;;;;;5060232;28;1240;-75
2021/03/11 05:07:00;;;;;;;;;;;;;;;;;;5060001;28;1682;-76
2021/03/11 05:09:25;;;;;;;;;;;;;;;;;;5059666;28;1296;-75
2021/03/11 05:11:50;;;;;;;;;;;;;;;;;;5077817;28;996;-75
2021/03/11 05:14:16;;;;;;;;;;;;;;;;;;5077628;28;1953;-75
2021/03/11 05:16:41;;;;;;;;;;;;;;;;;;5059779;28;1443;-75
2021/03/11 05:19:06;;;;;;;;;;;;;;;;;;5077517;28;961;-75
2021/03/11 05:21:32;;;;;;;;;;;;;;;;;;5077514;28;960;-75
2021/03/11 05:23:58;;;;;;;;;;;;;;;;;;5077282;28;853;-75
2021/03/11 05:26:23;;;;;;;;;;;;;;;;;;5059466;28;1321;-75
2021/03/11 05:28:48;;;;;;;;;;;;;;;;;;5077657;28;880;-75
2021/03/11 05:31:14;;;;;;;;;;;;;;;;;;5077433;28;928;-75
2021/03/11 05:33:39;;;;;;;;;;;;;;;;;;5077168;28;1969;-74
2021/03/11 05:36:04;;;;;;;;;;;;;;;;;;5077241;28;1369;-75
2021/03/11 05:38:29;;;;;;;;;;;;;;;;;;5077337;28;880;-74
2021/03/11 05:40:55;;;;;;;;;;;;;;;;;;5059070;28;1281;-75
2021/03/11 05:43:20;;;;;;;;;;;;;;;;;;5077299;28;869;-74
2021/03/11 05:45:46;;;;;;;;;;;;;;;;;;5059270;28;1353;-74
2021/03/11 05:48:15;;;;;;;;;;;;;;;;;;5059153;28;1513;-75
2021/03/11 05:50:42;;;;;;;;;;;;;;;;;;5077120;28;912;-75
2021/03/11 05:53:07;;;;;;;;;;;;;;;;;;5058778;28;1186;-75
2021/03/11 05:55:33;;;;;;;;;;;;;;;;;;5058852;28;1953;-75
2021/03/11 05:58:00;;;;;;;;;;;;;;;;;;5059045;28;1381;-75
2021/03/11 06:00:25;;;;;;;;;;;;;;;;;;5058589;28;854;-75
2021/03/11 06:02:58;;;;;;;;;;;;;;;;;;5076237;28;996;-76
2021/03/11 06:05:25;;;;;;;;;;;;;;;;;;5076902;28;1402;-75
2021/03/11 06:07:50;;;;;;;;;;;;;;;;;;5058779;28;885;-75
2021/03/11 06:10:16;;;;;;;;;;;;;;;;;;5058691;28;782;-75
2021/03/11 06:12:46;;;;;;;;;;;;;;;;;;5076536;28;964;-75
2021/03/11 06:15:18;;;;;;;;;;;;;;;;;;5076416;28;1889;-75
2021/03/11 06:17:43;;;;;;;;;;;;;;;;;;5058587;28;1194;-76
2021/03/11 06:20:10;;;;;;;;;;;;;;;;;;5076311;28;928;-75
2021/03/11 06:22:35;;;;;;;;;;;;;;;;;;5076205;28;1020;-75
2021/03/11 06:25:00;;;;;;;;;;;;;;;;;;5058528;28;1268;-75
2021/03/11 06:27:26;;;;;;;;;;;;;;;;;;5076487;28;1413;-75
2021/03/11 06:29:51;;;;;;;;;;;;;;;;;;5058454;28;901;-75
2021/03/11 06:32:16;;;;;;;;;;;;;;;;;;5076028;28;829;-75
2021/03/11 06:34:45;;;;;;;;;;;;;;;;;;5058250;28;1906;-75
2021/03/11 06:37:11;;;;;;;;;;;;;;;;;;5076085;28;1273;-75
2021/03/11 06:39:38;;;;;;;;;;;;;;;;;;5076076;28;1020;-75
2021/03/11 06:42:04;;;;;;;;;;;;;;;;;;5075954;28;841;-75
2021/03/11 06:44:37;;;;;;;;;;;;;;;;;;5076232;28;837;-75
2021/03/11 06:47:03;;;;;;;;;;;;;;;;;;5075554;28;1420;-76
2021/03/11 06:49:29;;;;;;;;;;;;;;;;;;5058047;28;1218;-75
2021/03/11 06:52:26;;;;;;;;;;;;;;;;;;5057910;28;825;-75
2021/03/11 06:54:52;;;;;;;;;;;;;;;;;;5041895;28;1910;-75
2021/03/11 06:57:23;;;;;;;;;;;;;;;;;;5057694;28;1338;-75
2021/03/11 06:59:49;;;;;;;;;;;;;;;;;;5057940;28;1462;-76
2021/03/11 07:02:14;;;;;;;;;;;;;;;;;;5057594;28;1180;-76
2021/03/11 07:04:39;;;;;;;;;;;;;;;;;;5075552;28;1020;-76
2021/03/11 07:07:15;;;;;;;;;;;;;;;;;;5075422;28;1401;-75
2021/03/11 07:09:40;;;;;;;;;;;;;;;;;;5057451;28;1293;-75
2021/03/11 07:12:05;;;;;;;;;;;;;;;;;;5075416;28;825;-75
2021/03/11 07:14:31;;;;;;;;;;;;;;;;;;5074814;28;1898;-75
2021/03/11 07:17:16;;;;;;;;;;;;;;;;;;5057142;28;1329;-75
2021/03/11 07:19:41;;;;;;;;;;;;;;;;;;5075015;28;882;-75
2021/03/11 07:22:15;;;;;;;;;;;;;;;;;;5057209;28;868;-75
2021/03/11 07:24:40;;;;;;;;;;;;;;;;;;5057294;28;1210;-75
2021/03/11 07:27:07;;;;;;;;;;;;;;;;;;5074977;28;1385;-76
2021/03/11 07:29:33;;;;;;;;;;;;;;;;;;5074952;28;991;-76
2021/03/11 07:32:02;;;;;;;;;;;;;;;;;;5075209;28;932;-75
2021/03/11 07:34:37;;;;;;;;;;;;;;;;;;5075021;28;1969;-75
2021/03/11 07:37:02;;;;;;;;;;;;;;;;;;5057212;28;1338;-75
2021/03/11 07:39:33;;;;;;;;;;;;;;;;;;5075113;28;813;-76
2021/03/11 07:41:58;;;;;;;;;;;;;;;;;;5056802;28;1009;-75
2021/03/11 07:44:24;;;;;;;;;;;;;;;;;;5074882;28;892;-76
2021/03/11 07:46:49;;;;;;;;;;;;;;;;;;5056917;28;1346;-75
2021/03/11 07:49:15;;;;;;;;;;;;;;;;;;5074938;28;879;-74
2021/03/11 07:51:41;;;;;;;;;;;;;;;;;;5074959;28;794;-76
2021/03/11 07:54:06;;;;;;;;;;;;;;;;;;5074020;28;1886;-75
2021/03/11 07:56:31;;;;;;;;;;;;;;;;;;5056788;28;1499;-75
2021/03/11 07:59:02;;;;;;;;;;;;;;;;;;5074759;28;881;-75
2021/03/11 08:01:27;;;;;;;;;;;;;;;;;;5074844;28;856;-75
2021/03/11 08:03:53;;;;;;;;;;;;;;;;;;5074530;28;837;-73
2021/03/11 08:06:20;;;;;;;;;;;;;;;;;;5074470;28;1365;-73
2021/03/11 08:08:46;;;;;;;;;;;;;;;;;;5074531;28;919;-72
2021/03/11 08:11:29;;;;;;;;;;;;;;;;;;5056701;28;783;-73
2021/03/11 08:14:14;;;;;;;;;;;;;;;;;;5074290;28;1901;-73
2021/03/11 08:16:39;;;;;;;;;;;;;;;;;;5074490;28;1305;-73
2021/03/11 08:19:05;;;;;;;;;;;;;;;;;;5074375;28;961;-73
2021/03/11 08:21:33;;;;;;;;;;;;;;;;;;5074219;28;877;-73
2021/03/11 08:23:58;;;;;;;;;;;;;;;;;;5056392;28;869;-73
2021/03/11 08:26:43;;;;;;;;;;;;;;;;;;5058191;28;1378;-73
2021/03/11 08:29:31;;;;;;;;;;;;;;;;;;5063134;28;885;-73
2021/03/11 08:31:56;;;;;;;;;;;;;;;;;;5054838;28;2032;-73
2021/03/11 08:34:37;;;;;;;;;;;;;;;;;;5080941;28;1898;-73
2021/03/11 08:37:15;;;;;;;;;;;;;;;;;;5080766;28;1306;-74
2021/03/11 08:39:41;;;;;;;;;;;;;;;;;;5081100;28;871;-73
2021/03/11 08:42:24;;;;;;;;;;;;;;;;;;5080777;28;818;-74
2021/03/11 08:44:50;;;;;;;;;;;;;;;;;;5080953;28;949;-73
2021/03/11 08:47:15;;;;;;;;;;;;;;;;;;5080803;28;1420;-73
2021/03/11 08:49:42;;;;;;;;;;;;;;;;;;5062968;28;1479;-73
2021/03/11 08:52:07;;;;;;;;;;;;;;;;;;5062767;28;822;-73
2021/03/11 08:54:32;;;;;;;;;;;;;;;;;;5080785;28;1894;-73
2021/03/11 08:56:58;;;;;;;;;;;;;;;;;;5080886;28;1381;-73
2021/03/11 08:59:42;;;;;;;;;;;;;;;;;;5062889;28;1230;-72
2021/03/11 09:02:36;;;;;;;;;;;;;;;;;;5080355;28;849;-73
2021/03/11 09:05:03;;;;;;;;;;;;;;;;;;5067384;28;1271;-74
2021/03/11 09:07:29;;;;;;;;;;;;;;;;;;5080711;28;1396;-73
2021/03/11 09:09:55;;;;;;;;;;;;;;;;;;5080902;28;876;-73
2021/03/11 09:12:37;;;;;;;;;;;;;;;;;;5062374;28;916;-73
2021/03/11 09:15:05;;;;;;;;;;;;;;;;;;5080686;28;1890;-74
2021/03/11 09:17:31;;;;;;;;;;;;;;;;;;5080610;28;1306;-73
2021/03/11 09:20:03;;;;;;;;;;;;;;;;;;5080640;28;965;-73
2021/03/11 09:22:38;;;;;;;;;;;;;;;;;;5080420;28;876;-73
2021/03/11 09:25:11;;;;;;;;;;;;;;;;;;5080263;28;948;-73
2021/03/11 09:27:39;;;;;;;;;;;;;;;;;;5080575;28;865;-73
2021/03/11 09:30:09;;;;;;;;;;;;;;;;;;5080622;28;927;-73
2021/03/11 09:32:35;;;;;;;;;;;;;;;;;;5062127;28;1213;-73
2021/03/11 09:35:02;;;;;;;;;;;;;;;;;;5080557;28;1969;-73
2021/03/11 09:37:43;;;;;;;;;;;;;;;;;;5061916;28;1491;-73
2021/03/11 09:40:08;;;;;;;;;;;;;;;;;;5077184;28;925;-73
2021/03/11 09:42:34;;;;;;;;;;;;;;;;;;5077053;28;876;-73
2021/03/11 09:44:59;;;;;;;;;;;;;;;;;;5077350;28;817;-73
2021/03/11 09:47:30;;;;;;;;;;;;;;;;;;5077109;28;1393;-73
2021/03/11 09:50:08;;;;;;;;;;;;;;;;;;5077160;28;896;-73
2021/03/11 09:52:33;;;;;;;;;;;;;;;;;;5076900;28;872;-73
2021/03/11 09:54:59;;;;;;;;;;;;;;;;;;5076757;28;1898;-73
2021/03/11 09:57:24;;;;;;;;;;;;;;;;;;5058863;28;1442;-73
2021/03/11 09:59:50;;;;;;;;;;;;;;;;;;5059077;28;1360;-73
2021/03/11 10:02:15;;;;;;;;;;;;;;;;;;5058546;28;1303;-72
2021/03/11 10:04:40;;;;;;;;;;;;;;;;;;5076850;28;814;-72
2021/03/11 10:07:12;;;;;;;;;;;;;;;;;;5076889;28;1401;-73
2021/03/11 10:09:41;;;;;;;;;;;;;;;;;;5076636;28;905;-73
2021/03/11 10:12:07;;;;;;;;;;;;;;;;;;5076601;28;987;-73
2021/03/11 10:14:32;;;;;;;;;;;;;;;;;;5076337;28;1902;-73
2021/03/11 10:16:59;;;;;;;;;;;;;;;;;;5076501;28;1302;-72
2021/03/11 10:19:30;;;;;;;;;;;;;;;;;;5076480;28;916;-73
2021/03/11 10:21:56;;;;;;;;;;;;;;;;;;5076474;28;810;-73
2021/03/11 10:24:39;;;;;;;;;;;;;;;;;;5076370;28;843;-73
2021/03/11 10:27:24;;;;;;;;;;;;;;;;;;5076341;28;1274;-73
2021/03/11 10:30:04;;;;;;;;;;;;;;;;;;5076395;28;880;-73
2021/03/11 10:32:29;;;;;;;;;;;;;;;;;;5076095;28;832;-72
2021/03/11 10:34:55;;;;;;;;;;;;;;;;;;5076178;28;1977;-73
2021/03/11 10:37:50;;;;;;;;;;;;;;;;;;5058284;28;1667;-73
2021/03/11 10:40:20;;;;;;;;;;;;;;;;;;5062918;28;1350;-73
2021/03/11 10:42:46;;;;;;;;;;;;;;;;;;5058066;28;878;-73
2021/03/11 10:45:16;;;;;;;;;;;;;;;;;;5075985;28;1342;-73
2021/03/11 10:47:43;;;;;;;;;;;;;;;;;;5075852;28;877;-73
2021/03/11 10:50:22;;;;;;;;;;;;;;;;;;5056885;28;944;-73
2021/03/11 10:52:51;;;;;;;;;;;;;;;;;;5057872;28;1330;-72
2021/03/11 10:55:26;;;;;;;;;;;;;;;;;;5075599;28;1961;-73
2021/03/11 10:57:52;;;;;;;;;;;;;;;;;;5075773;28;885;-73
2021/03/11 11:00:34;;;;;;;;;;;;;;;;;;5058043;28;1244;-73
2021/03/11 11:03:00;;;;;;;;;;;;;;;;;;5057656;28;1195;-72
2021/03/11 11:05:26;;;;;;;;;;;;;;;;;;5075575;28;1389;-73
2021/03/11 11:07:52;;;;;;;;;;;;;;;;;;5075527;28;912;-73
2021/03/11 11:10:21;;;;;;;;;;;;;;;;;;5076052;28;872;-73
2021/03/11 11:12:47;;;;;;;;;;;;;;;;;;5075168;28;813;-73
2021/03/11 11:15:13;;;;;;;;;;;;;;;;;;5075035;28;1894;-75
2021/03/11 11:17:38;;;;;;;;;;;;;;;;;;5057777;28;928;-74
2021/03/11 11:20:05;;;;;;;;;;;;;;;;;;5075313;28;869;-73
2021/03/11 11:22:31;;;;;;;;;;;;;;;;;;5057133;28;904;-74
2021/03/11 11:24:57;;;;;;;;;;;;;;;;;;5075038;28;856;-74
2021/03/11 11:27:22;;;;;;;;;;;;;;;;;;5075183;28;1369;-75
2021/03/11 11:29:48;;;;;;;;;;;;;;;;;;5057342;28;1312;-74
2021/03/11 11:32:13;;;;;;;;;;;;;;;;;;5074872;28;895;-73
2021/03/11 11:34:38;;;;;;;;;;;;;;;;;;5074873;28;2024;-74
2021/03/11 11:37:03;;;;;;;;;;;;;;;;;;5057070;28;1282;-73
2021/03/11 11:39:29;;;;;;;;;;;;;;;;;;5075074;28;924;-74
2021/03/11 11:41:54;;;;;;;;;;;;;;;;;;5074973;28;853;-74
2021/03/11 11:44:20;;;;;;;;;;;;;;;;;;5074628;28;1160;-75
2021/03/11 11:46:45;;;;;;;;;;;;;;;;;;5074929;28;1313;-76
2021/03/11 11:49:11;;;;;;;;;;;;;;;;;;5074984;28;900;-74
2021/03/11 11:51:37;;;;;;;;;;;;;;;;;;5057086;28;825;-75
2021/03/11 11:54:02;;;;;;;;;;;;;;;;;;5074610;28;1894;-74
2021/03/11 11:56:27;;;;;;;;;;;;;;;;;;5056570;28;1436;-74
2021/03/11 11:58:53;;;;;;;;;;;;;;;;;;5056788;28;1532;-75
2021/03/11 12:01:18;;;;;;;;;;;;;;;;;;5056525;28;818;-75
2021/03/11 12:03:43;;;;;;;;;;;;;;;;;;5056548;28;1230;-74
2021/03/11 12:06:09;;;;;;;;;;;;;;;;;;5074528;28;1290;-74
2021/03/11 12:08:34;;;;;;;;;;;;;;;;;;5056401;28;1301;-75
2021/03/11 12:11:00;;;;;;;;;;;;;;;;;;5056696;28;1383;-72
2021/03/11 12:13:25;;;;;;;;;;;;;;;;;;5074419;28;932;-75
2021/03/11 12:15:51;;;;;;;;;;;;;;;;;;5074465;28;1874;-75
2021/03/11 12:18:16;;;;;;;;;;;;;;;;;;5074586;28;1208;-75
2021/03/11 12:20:41;;;;;;;;;;;;;;;;;;5074567;28;867;-75
2021/03/11 12:23:07;;;;;;;;;;;;;;;;;;5074081;28;1298;-75
2021/03/11 12:25:32;;;;;;;;;;;;;;;;;;5074345;28;1353;-74
2021/03/11 12:27:58;;;;;;;;;;;;;;;;;;5056458;28;1333;-74
2021/03/11 12:30:24;;;;;;;;;;;;;;;;;;5074469;28;874;-73
2021/03/11 12:32:49;;;;;;;;;;;;;;;;;;5073803;28;1957;-74
2021/03/11 12:35:14;;;;;;;;;;;;;;;;;;5074219;28;1950;-74
2021/03/11 12:37:40;;;;;;;;;;;;;;;;;;5074531;28;944;-75
2021/03/11 12:40:05;;;;;;;;;;;;;;;;;;5056697;28;1057;-74
2021/03/11 12:42:31;;;;;;;;;;;;;;;;;;5056483;28;860;-75
2021/03/11 12:44:56;;;;;;;;;;;;;;;;;;5056559;28;1354;-74
2021/03/11 12:47:21;;;;;;;;;;;;;;;;;;5039519;28;1447;-75
2021/03/11 12:49:46;;;;;;;;;;;;;;;;;;5074353;28;854;-75
2021/03/11 12:52:11;;;;;;;;;;;;;;;;;;5056150;28;716;-74
2021/03/11 12:54:37;;;;;;;;;;;;;;;;;;5074142;28;1902;-75
2021/03/11 12:57:02;;;;;;;;;;;;;;;;;;5055953;28;1702;-75
2021/03/11 12:59:27;;;;;;;;;;;;;;;;;;5074220;28;873;-74
2021/03/11 13:01:53;;;;;;;;;;;;;;;;;;5056459;28;1435;-74
2021/03/11 13:04:18;;;;;;;;;;;;;;;;;;5074039;28;884;-75
2021/03/11 13:06:43;;;;;;;;;;;;;;;;;;5073801;28;1274;-75
2021/03/11 13:09:08;;;;;;;;;;;;;;;;;;5073993;28;996;-75
2021/03/11 13:11:34;;;;;;;;;;;;;;;;;;5056036;28;1203;-74
2021/03/11 13:13:59;;;;;;;;;;;;;;;;;;5075699;28;1901;-75
2021/03/11 13:16:24;;;;;;;;;;;;;;;;;;5077720;28;1286;-75
2021/03/11 13:18:50;;;;;;;;;;;;;;;;;;5077742;28;897;-74
2021/03/11 13:21:16;;;;;;;;;;;;;;;;;;5077597;28;880;-75
2021/03/11 13:23:41;;;;;;;;;;;;;;;;;;5077422;28;948;-75
2021/03/11 13:26:06;;;;;;;;;;;;;;;;;;5059711;28;1468;-74
2021/03/11 13:28:32;;;;;;;;;;;;;;;;;;5077556;28;975;-76
2021/03/11 13:30:57;;;;;;;;;;;;;;;;;;5077485;28;956;-75
2021/03/11 13:33:22;;;;;;;;;;;;;;;;;;5077111;28;1119;-74
2021/03/11 13:35:48;;;;;;;;;;;;;;;;;;5077437;28;1906;-74
2021/03/11 13:38:13;;;;;;;;;;;;;;;;;;5059513;28;894;-75
2021/03/11 13:40:38;;;;;;;;;;;;;;;;;;5077393;28;880;-74
2021/03/11 13:43:03;;;;;;;;;;;;;;;;;;5077124;28;952;-75
2021/03/11 13:45:29;;;;;;;;;;;;;;;;;;5077152;28;1468;-75
2021/03/11 13:47:54;;;;;;;;;;;;;;;;;;5058876;28;1329;-74
2021/03/11 13:50:20;;;;;;;;;;;;;;;;;;5077103;28;825;-75
2021/03/11 13:52:45;;;;;;;;;;;;;;;;;;5077384;28;814;-73
2021/03/11 13:55:11;;;;;;;;;;;;;;;;;;5058899;28;1886;-74
2021/03/11 13:57:36;;;;;;;;;;;;;;;;;;5077037;28;837;-74
2021/03/11 14:00:03;;;;;;;;;;;;;;;;;;5070581;28;2049;-73
2021/03/11 14:02:28;;;;;;;;;;;;;;;;;;5065024;28;1723;-74
2021/03/11 14:04:53;;;;;;;;;;;;;;;;;;5067015;28;1588;-76
2021/03/11 14:07:19;;;;;;;;;;;;;;;;;;5046219;28;1650;-74
2021/03/11 14:09:44;;;;;;;;;;;;;;;;;;5065130;28;1590;-75
2021/03/11 14:12:09;;;;;;;;;;;;;;;;;;5049500;28;1693;-75
2021/03/11 14:14:35;;;;;;;;;;;;;;;;;;5065407;28;1961;-74
2021/03/11 14:17:01;;;;;;;;;;;;;;;;;;5065901;28;1735;-74
2021/03/11 14:19:26;;;;;;;;;;;;;;;;;;5076405;28;1731;-74
2021/03/11 14:23:16;;;;;;;;;;;;;;;;;;5112602;27;1369;-76
2021/03/11 14:25:41;;;;;;;;;;;;;;;;;;5111154;28;1373;-76
2021/03/11 14:28:06;;;;;;;;;;;;;;;;;;5111031;28;1649;-76
2021/03/11 14:30:31;;;;;;;;;;;;;;;;;;5111541;28;1443;-78
2021/03/11 14:32:57;;;;;;;;;;;;;;;;;;5111013;28;1371;-75
2021/03/11 14:35:22;;;;;;;;;;;;;;;;;;5111375;28;1310;-75
2021/03/11 14:37:47;;;;;;;;;;;;;;;;;;5112246;28;877;-75
2021/03/11 14:40:13;;;;;;;;;;;;;;;;;;5112273;28;874;-75
2021/03/11 14:42:39;;;;;;;;;;;;;;;;;;5111864;28;1974;-77
2021/03/11 14:45:04;;;;;;;;;;;;;;;;;;5111038;28;1293;-76
2021/03/11 14:47:29;;;;;;;;;;;;;;;;;;5110681;28;1463;-75
2021/03/11 14:49:55;;;;;;;;;;;;;;;;;;5110860;28;1448;-76
2021/03/11 14:52:20;;;;;;;;;;;;;;;;;;5110693;28;1378;-76
2021/03/11 14:54:47;;;;;;;;;;;;;;;;;;5110697;28;1321;-76
2021/03/11 14:57:12;;;;;;;;;;;;;;;;;;5110751;28;1373;-76
2021/03/11 14:59:37;;;;;;;;;;;;;;;;;;5110560;28;1498;-76
2021/03/11 15:02:03;;;;;;;;;;;;;;;;;;5111714;28;1901;-77
2021/03/11 15:04:28;;;;;;;;;;;;;;;;;;5110449;28;1223;-76
2021/03/11 15:06:53;;;;;;;;;;;;;;;;;;5110574;28;2255;-76
2021/03/11 15:09:19;;;;;;;;;;;;;;;;;;5111843;28;1027;-76
2021/03/11 15:11:44;;;;;;;;;;;;;;;;;;5110492;28;1210;-76
2021/03/11 15:14:09;;;;;;;;;;;;;;;;;;5110125;28;1474;-76
2021/03/11 15:16:35;;;;;;;;;;;;;;;;;;5110667;28;1376;-76
2021/03/11 15:19:00;;;;;;;;;;;;;;;;;;5110045;28;1198;-77
2021/03/11 15:21:25;;;;;;;;;;;;;;;;;;5111518;28;1897;-75
2021/03/11 15:23:51;;;;;;;;;;;;;;;;;;5110089;28;912;-76
2021/03/11 15:26:17;;;;;;;;;;;;;;;;;;5110127;28;1398;-76
2021/03/11 15:28:42;;;;;;;;;;;;;;;;;;5110531;28;813;-78
2021/03/11 15:31:09;;;;;;;;;;;;;;;;;;5109827;28;1293;-77
2021/03/11 15:33:36;;;;;;;;;;;;;;;;;;5102270;28;1312;-75
2021/03/11 15:36:01;;;;;;;;;;;;;;;;;;5097390;28;1297;-77
2021/03/11 15:38:27;;;;;;;;;;;;;;;;;;5096333;28;1352;-77
2021/03/11 15:40:53;;;;;;;;;;;;;;;;;;5097399;28;1981;-77
2021/03/11 15:43:19;;;;;;;;;;;;;;;;;;5096066;28;1321;-76
2021/03/11 15:45:44;;;;;;;;;;;;;;;;;;5097336;28;1305;-76
2021/03/11 15:48:10;;;;;;;;;;;;;;;;;;5097436;28;884;-77
2021/03/11 15:50:35;;;;;;;;;;;;;;;;;;5096396;28;1125;-76
2021/03/11 15:53:00;;;;;;;;;;;;;;;;;;5097323;28;801;-75
2021/03/11 15:55:26;;;;;;;;;;;;;;;;;;5096903;28;1415;-75
2021/03/11 15:57:51;;;;;;;;;;;;;;;;;;5096088;28;893;-77
2021/03/11 16:00:17;;;;;;;;;;;;;;;;;;5097156;28;860;-76
2021/03/11 16:02:42;;;;;;;;;;;;;;;;;;5096896;28;1898;-76
2021/03/11 16:05:08;;;;;;;;;;;;;;;;;;5097133;28;889;-75
2021/03/11 16:07:33;;;;;;;;;;;;;;;;;;5095661;28;2523;-75
2021/03/11 16:10:00;;;;;;;;;;;;;;;;;;5096860;28;838;-76
2021/03/11 16:12:25;;;;;;;;;;;;;;;;;;5095528;28;1652;-75
2021/03/11 16:14:50;;;;;;;;;;;;;;;;;;5095661;28;1493;-76
2021/03/11 16:17:16;;;;;;;;;;;;;;;;;;5095464;28;1329;-75
2021/03/11 16:19:43;;;;;;;;;;;;;;;;;;5095518;28;1380;-76
2021/03/11 16:22:13;;;;;;;;;;;;;;;;;;5094933;28;1898;-75
2021/03/11 16:24:39;;;;;;;;;;;;;;;;;;5096762;28;971;-75
2021/03/11 16:27:05;;;;;;;;;;;;;;;;;;5095318;28;1446;-75
2021/03/11 16:29:30;;;;;;;;;;;;;;;;;;5095344;28;1265;-75
2021/03/11 16:31:56;;;;;;;;;;;;;;;;;;5094985;28;1554;-76
2021/03/11 16:34:21;;;;;;;;;;;;;;;;;;5095008;28;1287;-77
2021/03/11 16:36:46;;;;;;;;;;;;;;;;;;5096413;28;1337;-76
2021/03/11 16:39:12;;;;;;;;;;;;;;;;;;5096366;28;911;-75
2021/03/11 16:41:38;;;;;;;;;;;;;;;;;;5096260;28;1905;-75
2021/03/11 16:44:04;;;;;;;;;;;;;;;;;;5094487;28;1332;-76
2021/03/11 16:46:29;;;;;;;;;;;;;;;;;;5094006;28;1392;-77
2021/03/11 16:48:54;;;;;;;;;;;;;;;;;;5096373;28;892;-76
2021/03/11 16:51:19;;;;;;;;;;;;;;;;;;5096242;28;1023;-74
2021/03/11 16:53:45;;;;;;;;;;;;;;;;;;5094425;28;1698;-77
2021/03/11 16:56:10;;;;;;;;;;;;;;;;;;5095956;28;1381;-75
2021/03/11 16:58:35;;;;;;;;;;;;;;;;;;5094730;28;1178;-75
2021/03/11 17:01:04;;;;;;;;;;;;;;;;;;5095962;28;1969;-75
2021/03/11 17:03:32;;;;;;;;;;;;;;;;;;5094256;28;1363;-75
2021/03/11 17:06:33;;;;;;;;;;;;;;;;;;5094575;28;1278;-75
2021/03/11 17:08:59;;;;;;;;;;;;;;;;;;5071074;28;1574;-76
2021/03/11 17:11:24;;;;;;;;;;;;;;;;;;5095508;28;868;-74